Time;durP1;ratioP1;P1;durP2;ratioP2;P2;SDS_P1;SDS_P2;PMS_P1;PMS_P2;Temp;Humidity;BMP_temperature;BMP_pressure;BME280_temperature;BME280_humidity;BME280_pressure;Samples;Min_cycle;Max_cycle;Signal;HPM_P1;HPM_P2
2022/07/28 00:00:50;;;;;;;;;6.75;5.00;;;;;20.62;36.79;101340.19;5111041;27;45420;-87
2022/07/28 00:03:15;;;;;;;;;7.00;5.25;;;;;20.54;37.20;101341.56;5093354;27;63252;-87
2022/07/28 00:05:41;;;;;;;;;5.00;5.00;;;;;20.63;37.31;101349.81;5110938;27;45426;-87
2022/07/28 00:08:08;;;;;;;;;5.00;5.00;;;;;20.59;37.04;101337.69;5093628;27;48214;-87
2022/07/28 00:10:34;;;;;;;;;5.00;5.00;;;;;20.61;37.08;101343.75;5110251;27;45326;-87
2022/07/28 00:12:59;;;;;;;;;5.75;4.25;;;;;20.54;36.64;101336.28;5093767;27;45346;-87
2022/07/28 00:15:25;;;;;;;;;6.00;6.00;;;;;20.55;36.99;101340.63;5111165;27;45497;-87
2022/07/28 00:17:51;;;;;;;;;7.25;6.00;;;;;20.56;37.03;101350.25;5077980;28;46500;-87
2022/07/28 00:20:16;;;;;;;;;6.00;6.00;;;;;20.49;37.34;101328.66;5094307;27;45368;-88
2022/07/28 00:22:43;;;;;;;;;8.00;8.00;;;;;20.53;36.79;101338.09;5076350;28;59367;-88
2022/07/28 00:25:09;;;;;;;;;7.25;7.00;;;;;20.48;37.77;101337.50;5110943;27;45444;-88
2022/07/28 00:27:34;;;;;;;;;11.00;9.00;;;;;20.46;37.41;101331.47;5110614;27;45728;-87
2022/07/28 00:30:00;;;;;;;;;10.75;9.75;;;;;20.42;37.81;101319.38;5093503;27;45432;-88
2022/07/28 00:32:25;;;;;;;;;9.00;9.00;;;;;20.42;37.59;101314.94;5110691;27;45464;-88
2022/07/28 00:34:51;;;;;;;;;11.00;9.00;;;;;20.41;37.93;101318.53;5076961;28;45331;-87
2022/07/28 00:37:16;;;;;;;;;10.00;9.00;;;;;20.37;38.15;101306.44;5093238;27;47404;-87
2022/07/28 00:39:42;;;;;;;;;13.75;10.75;;;;;20.38;37.21;101312.59;5059131;28;52098;-87
2022/07/28 00:42:08;;;;;;;;;13.25;9.25;;;;;20.27;37.59;101292.94;5093491;27;48471;-87
2022/07/28 00:44:33;;;;;;;;;10.00;10.00;;;;;20.26;37.89;101303.59;5075830;27;45360;-87
2022/07/28 00:46:58;;;;;;;;;11.00;10.25;;;;;20.25;37.76;101305.38;5077696;28;46091;-88
2022/07/28 00:49:24;;;;;;;;;14.00;11.00;;;;;20.20;37.62;101298.69;5075924;28;67561;-87
2022/07/28 00:51:49;;;;;;;;;12.25;10.25;;;;;20.18;38.13;101304.06;5076098;28;45448;-87
2022/07/28 00:54:16;;;;;;;;;10.25;10.00;;;;;20.18;38.75;101306.69;5075852;28;66217;-87
2022/07/28 00:56:41;;;;;;;;;11.75;8.75;;;;;20.13;38.52;101292.91;5059305;28;47175;-88
2022/07/28 00:59:07;;;;;;;;;10.50;9.00;;;;;20.09;38.20;101288.75;5077037;28;45494;-87
2022/07/28 01:01:32;;;;;;;;;10.25;7.75;;;;;20.14;37.94;101296.41;5076543;28;45305;-87
2022/07/28 01:04:01;;;;;;;;;11.25;8.00;;;;;20.11;38.46;101286.88;5076344;28;45356;-88
2022/07/28 01:06:44;;;;;;;;;7.00;6.75;;;;;20.13;38.28;101289.41;5075721;28;47362;-87
2022/07/28 01:09:50;;;;;;;;;8.00;7.25;;;;;20.07;38.44;101280.06;5077207;28;45342;-87
2022/07/28 01:12:24;;;;;;;;;10.00;7.00;;;;;20.11;38.88;101290.38;5093463;27;45577;-87
2022/07/28 01:15:19;;;;;;;;;5.50;5.00;;;;;20.11;38.21;101285.09;5093331;27;45325;-87
2022/07/28 01:18:01;;;;;;;;;7.00;7.00;;;;;20.10;39.31;101280.75;5075834;27;47620;-86
2022/07/28 01:20:39;;;;;;;;;1.75;1.00;;;;;20.10;38.43;101282.53;5093035;27;45705;-87
2022/07/28 01:23:11;;;;;;;;;7.25;5.00;;;;;20.10;38.58;101283.38;5075994;28;45468;-87
2022/07/28 01:25:53;;;;;;;;;5.50;4.00;;;;;20.04;38.79;101277.59;5077223;28;45452;-86
2022/07/28 01:28:56;;;;;;;;;5.00;3.75;;;;;20.07;39.09;101282.72;5076094;28;45496;-87
2022/07/28 01:31:24;;;;;;;;;4.00;4.00;;;;;20.01;38.91;101273.38;5089746;27;45760;-87
2022/07/28 01:33:58;;;;;;;;;6.00;4.00;;;;;20.02;38.92;101287.41;5073371;27;45475;-88
2022/07/28 01:36:30;;;;;;;;;6.75;4.50;;;;;20.01;39.31;101285.72;5055763;28;45247;-87
2022/07/28 01:38:57;;;;;;;;;4.00;4.00;;;;;19.92;39.41;101268.63;5072212;28;49113;-87
2022/07/28 01:41:26;;;;;;;;;3.50;2.00;;;;;19.95;39.47;101284.31;5056104;28;45472;-87
2022/07/28 01:43:58;;;;;;;;;4.25;3.00;;;;;19.92;39.17;101272.13;5080153;27;45252;-87
2022/07/28 01:46:24;;;;;;;;;2.00;2.00;;;;;19.90;38.76;101274.00;5096181;27;45312;-87
2022/07/28 01:48:50;;;;;;;;;2.50;2.00;;;;;19.94;39.33;101279.13;5096550;27;45427;-86
2022/07/28 01:51:16;;;;;;;;;2.50;2.50;;;;;19.84;39.53;101271.72;5096262;27;45389;-87
2022/07/28 01:53:43;;;;;;;;;3.00;3.00;;;;;19.90;39.48;101268.72;5096813;27;61333;-88
2022/07/28 01:56:09;;;;;;;;;1.25;1.25;;;;;19.88;39.53;101261.84;5102421;27;45652;-87
2022/07/28 01:58:35;;;;;;;;;3.25;2.00;;;;;19.90;39.22;101266.06;5104777;27;66202;-87
2022/07/28 02:01:02;;;;;;;;;4.75;3.00;;;;;19.92;39.18;101266.00;5105659;27;45466;-87
2022/07/28 02:03:29;;;;;;;;;3.00;2.00;;;;;19.86;39.14;101251.34;5106377;27;45317;-87
2022/07/28 02:05:56;;;;;;;;;3.00;2.00;;;;;19.86;40.11;101247.88;5140691;27;45374;-87
2022/07/28 02:08:22;;;;;;;;;2.00;2.00;;;;;19.98;40.30;101256.84;5088084;27;47549;-87
2022/07/28 02:13:34;;;;;;;;;3.00;2.50;;;;;19.96;40.00;101259.56;5108033;27;45445;-88
2022/07/28 02:16:03;;;;;;;;;2.00;2.00;;;;;19.95;40.04;101251.72;5125642;27;45500;-88
2022/07/28 02:18:30;;;;;;;;;3.50;2.00;;;;;19.94;40.03;101255.34;5102362;27;48817;-88
2022/07/28 02:20:56;;;;;;;;;3.00;2.00;;;;;19.87;40.63;101249.56;5084408;27;45279;-88
2022/07/28 02:23:22;;;;;;;;;3.50;2.00;;;;;19.89;40.10;101250.31;5102168;27;45388;-88
2022/07/28 02:25:49;;;;;;;;;2.00;2.00;;;;;19.88;40.79;101238.91;5083823;27;67705;-88
2022/07/28 02:28:18;;;;;;;;;3.75;2.00;;;;;19.86;40.53;101235.50;5098806;27;63899;-87
2022/07/28 02:30:55;;;;;;;;;1.75;1.00;;;;;19.91;39.88;101240.53;5111317;27;45766;-87
2022/07/28 02:33:22;;;;;;;;;2.00;2.00;;;;;19.85;39.99;101230.31;5078393;28;45327;-87
2022/07/28 02:35:50;;;;;;;;;2.50;1.00;;;;;19.86;40.73;101239.94;5078445;28;45332;-87
2022/07/28 02:38:22;;;;;;;;;1.00;1.00;;;;;19.88;40.38;101233.63;5079390;28;46683;-87
2022/07/28 02:40:48;;;;;;;;;4.00;2.00;;;;;19.91;40.75;101232.59;5078150;28;45592;-87
2022/07/28 02:43:16;;;;;;;;;2.00;2.00;;;;;19.88;40.53;101235.41;5112407;27;45354;-87
2022/07/28 02:45:45;;;;;;;;;2.00;2.00;;;;;19.88;41.27;101235.41;5061150;28;45496;-87
2022/07/28 02:48:13;;;;;;;;;3.25;2.00;;;;;19.90;40.15;101244.09;5094770;27;46749;-87
2022/07/28 02:50:40;;;;;;;;;3.25;2.00;;;;;19.79;40.16;101215.69;5078050;28;45362;-87
2022/07/28 02:53:06;;;;;;;;;4.00;2.50;;;;;19.89;40.00;101230.03;5078013;28;45414;-87
2022/07/28 02:55:32;;;;;;;;;4.00;2.00;;;;;19.90;40.51;101236.16;5095254;27;45482;-87
2022/07/28 02:57:59;;;;;;;;;3.00;2.25;;;;;19.89;39.94;101232.69;5078172;28;46455;-88
2022/07/28 03:00:25;;;;;;;;;5.00;1.00;;;;;19.85;39.93;101236.44;5077791;28;45792;-88
2022/07/28 03:02:52;;;;;;;;;1.00;1.00;;;;;19.84;39.96;101237.41;5077835;28;45434;-88
2022/07/28 03:05:18;;;;;;;;;1.75;1.75;;;;;19.83;40.61;101235.69;5095114;27;45805;-87
2022/07/28 03:07:44;;;;;;;;;2.00;2.00;;;;;19.87;40.08;101231.06;5076761;28;62980;-87
2022/07/28 03:10:24;;;;;;;;;2.00;2.00;;;;;19.84;39.86;101229.47;5077709;28;45414;-87
2022/07/28 03:12:50;;;;;;;;;2.00;1.00;;;;;19.81;39.90;101229.63;5060930;28;45302;-87
2022/07/28 03:15:15;;;;;;;;;3.00;1.00;;;;;19.75;40.23;101218.63;5078861;28;45582;-87
2022/07/28 03:17:41;;;;;;;;;1.00;1.00;;;;;19.72;39.98;101224.88;5060459;28;46937;-87
2022/07/28 03:20:08;;;;;;;;;1.00;1.00;;;;;19.75;39.80;101242.38;5077785;28;45818;-87
2022/07/28 03:22:33;;;;;;;;;2.00;2.00;;;;;19.72;39.94;101241.63;5078054;28;45402;-87
2022/07/28 03:24:59;;;;;;;;;2.00;2.00;;;;;19.71;40.13;101237.25;5077897;28;45521;-88
2022/07/28 03:27:27;;;;;;;;;1.75;1.75;;;;;19.68;40.37;101226.00;5077722;28;47355;-87
2022/07/28 03:29:57;;;;;;;;;1.75;1.75;;;;;19.64;40.41;101222.69;5077422;28;45893;-87
2022/07/28 03:32:24;;;;;;;;;1.00;1.00;;;;;19.70;40.03;101230.25;5077695;28;45450;-87
2022/07/28 03:34:51;;;;;;;;;2.00;2.00;;;;;19.62;39.98;101223.75;5078318;28;45520;-87
2022/07/28 03:37:21;;;;;;;;;1.00;1.00;;;;;19.62;40.39;101229.88;5094688;27;48127;-87
2022/07/28 03:39:47;;;;;;;;;1.00;1.00;;;;;19.61;40.64;101222.03;5061040;28;45709;-87
2022/07/28 03:42:19;;;;;;;;;1.75;1.75;;;;;19.57;40.48;101223.16;5078484;28;45304;-87
2022/07/28 03:44:45;;;;;;;;;1.25;1.25;;;;;19.57;40.05;101218.72;5131718;27;45485;-87
2022/07/28 03:47:11;;;;;;;;;3.00;1.00;;;;;19.52;40.61;101223.44;5097849;27;45423;-87
2022/07/28 03:49:37;;;;;;;;;1.75;1.75;;;;;19.51;40.22;101219.94;5081195;27;46055;-87
2022/07/28 03:52:03;;;;;;;;;2.00;2.00;;;;;19.56;40.98;101224.09;5098482;27;45499;-88
2022/07/28 03:54:28;;;;;;;;;1.00;1.00;;;;;19.54;40.70;101224.19;5115308;27;45424;-87
2022/07/28 03:56:53;;;;;;;;;1.00;1.00;;;;;19.49;40.40;101228.88;5097784;27;60970;-87
2022/07/28 03:59:20;;;;;;;;;2.50;2.25;;;;;19.49;40.65;101226.25;5081617;27;45425;-87
2022/07/28 04:01:45;;;;;;;;;2.50;2.00;;;;;19.47;40.55;101228.13;5097958;27;45753;-89
2022/07/28 04:04:11;;;;;;;;;1.75;1.75;;;;;19.46;40.37;101223.78;5115310;27;45606;-87
2022/07/28 04:06:36;;;;;;;;;3.25;2.00;;;;;19.37;40.40;101213.75;5097863;27;46333;-87
2022/07/28 04:09:02;;;;;;;;;3.00;1.50;;;;;19.38;40.69;101221.59;5080525;27;45375;-87
2022/07/28 04:11:27;;;;;;;;;2.25;1.00;;;;;19.36;41.02;101223.47;5099030;27;45395;-86
2022/07/28 04:13:54;;;;;;;;;3.00;1.50;;;;;19.33;40.60;101221.00;5097445;27;45542;-86
2022/07/28 04:16:20;;;;;;;;;1.75;1.00;;;;;19.33;40.76;101227.16;5097149;27;46732;-87
2022/07/28 04:18:46;;;;;;;;;2.00;1.25;;;;;19.34;40.98;101234.13;5097269;27;45354;-86
2022/07/28 04:21:11;;;;;;;;;1.50;1.50;;;;;19.33;40.77;101226.28;5097365;27;45243;-86
2022/07/28 04:23:37;;;;;;;;;1.75;1.50;;;;;19.28;41.01;101217.81;5097058;27;45294;-87
2022/07/28 04:26:02;;;;;;;;;2.00;2.00;;;;;19.34;41.02;101233.28;5096945;27;60435;-87
2022/07/28 04:28:27;;;;;;;;;1.00;1.00;;;;;19.26;41.31;101214.38;5099533;27;45317;-88
2022/07/28 04:30:53;;;;;;;;;1.25;1.00;;;;;19.27;41.20;101213.44;5090489;27;60435;-87
2022/07/28 04:33:18;;;;;;;;;2.25;1.00;;;;;19.31;41.10;101223.72;5093416;27;70351;-87
2022/07/28 04:35:44;;;;;;;;;4.00;2.00;;;;;19.32;41.09;101229.88;5111042;27;46063;-87
2022/07/28 04:38:12;;;;;;;;;2.50;1.00;;;;;19.30;41.28;101229.97;5076905;28;45391;-88
2022/07/28 04:40:38;;;;;;;;;3.50;2.00;;;;;19.29;40.95;101217.69;5110999;27;45382;-88
2022/07/28 04:43:03;;;;;;;;;1.00;1.00;;;;;19.28;41.15;101217.81;5111447;27;45354;-88
2022/07/28 04:45:29;;;;;;;;;2.50;2.00;;;;;19.32;41.57;101214.88;5076014;28;46167;-87
2022/07/28 04:47:54;;;;;;;;;2.25;2.00;;;;;19.31;41.67;101212.31;5077393;28;45938;-88
2022/07/28 04:50:20;;;;;;;;;3.00;2.00;;;;;19.30;41.83;101208.00;5076816;28;45383;-87
2022/07/28 04:52:48;;;;;;;;;1.00;1.00;;;;;19.30;41.25;101200.94;5078142;27;45581;-88
2022/07/28 04:55:15;;;;;;;;;1.25;1.25;;;;;19.26;41.14;101207.34;5076433;28;47546;-87
2022/07/28 04:57:40;;;;;;;;;4.00;2.00;;;;;19.18;41.46;101191.06;5077531;28;45296;-87
2022/07/28 05:00:13;;;;;;;;;2.50;2.00;;;;;19.28;42.08;101208.09;5078191;27;45283;-87
2022/07/28 05:02:39;;;;;;;;;2.50;2.00;;;;;19.38;41.52;101216.31;5078356;27;45449;-87
2022/07/28 05:05:06;;;;;;;;;4.00;4.00;;;;;19.40;41.42;101219.72;5059479;28;47563;-87
2022/07/28 05:07:31;;;;;;;;;4.50;3.00;;;;;19.43;41.81;101218.69;5076195;28;45398;-87
2022/07/28 05:09:56;;;;;;;;;4.00;4.00;;;;;19.44;41.13;101217.75;5075210;28;65899;-87
2022/07/28 05:12:22;;;;;;;;;3.00;3.00;;;;;19.42;41.73;101217.81;5075512;28;59543;-87
2022/07/28 05:14:47;;;;;;;;;0.00;0.00;;;;;19.43;41.31;101219.53;5075039;28;67783;-87
2022/07/28 05:17:13;;;;;;;;;4.00;2.25;;;;;19.41;41.84;101210.88;5093032;27;45434;-87
2022/07/28 05:19:38;;;;;;;;;4.00;2.00;;;;;19.50;41.53;101220.88;5058721;28;50450;-87
2022/07/28 05:22:03;;;;;;;;;4.00;2.25;;;;;19.49;41.17;101216.53;5076036;28;49499;-87
2022/07/28 05:24:29;;;;;;;;;2.00;2.00;;;;;19.54;41.18;101214.47;5058073;28;68353;-87
2022/07/28 05:26:54;;;;;;;;;4.00;2.00;;;;;19.61;40.77;101220.22;5057933;28;65040;-88
2022/07/28 05:29:19;;;;;;;;;2.00;2.00;;;;;19.60;41.00;101220.34;5075555;28;45361;-87
2022/07/28 05:31:45;;;;;;;;;2.00;2.00;;;;;19.59;41.12;101210.72;5068753;28;45817;-86
2022/07/28 05:34:10;;;;;;;;;3.00;1.00;;;;;19.61;41.04;101222.88;5076060;28;46525;-87
2022/07/28 05:36:36;;;;;;;;;3.00;2.25;;;;;19.60;41.05;101212.41;5110226;27;45323;-87
2022/07/28 05:39:01;;;;;;;;;4.00;2.75;;;;;19.61;41.28;101216.75;5110082;27;45353;-87
2022/07/28 05:41:27;;;;;;;;;7.00;2.00;;;;;19.65;41.20;101216.50;5076839;27;45509;-87
2022/07/28 05:43:52;;;;;;;;;4.00;2.00;;;;;19.65;41.42;101219.13;5122067;27;47728;-87
2022/07/28 05:46:17;;;;;;;;;5.00;2.25;;;;;19.65;40.89;101221.78;5078221;27;63793;-87
2022/07/28 05:48:43;;;;;;;;;2.00;2.00;;;;;19.62;41.24;101210.53;5112528;27;63833;-86
2022/07/28 05:51:08;;;;;;;;;2.00;2.00;;;;;19.61;41.34;101212.31;5096877;27;45315;-87
2022/07/28 05:53:33;;;;;;;;;2.50;2.25;;;;;19.63;41.22;101214.88;5095215;27;64312;-87
2022/07/28 05:55:59;;;;;;;;;3.50;2.50;;;;;19.66;41.44;101212.03;5095291;27;58806;-87
2022/07/28 05:58:24;;;;;;;;;6.50;4.25;;;;;19.71;41.67;101204.72;5096835;27;45449;-87
2022/07/28 06:00:49;;;;;;;;;2.00;2.00;;;;;19.79;41.26;101213.03;5094746;27;68100;-86
2022/07/28 06:03:15;;;;;;;;;3.75;3.75;;;;;19.83;41.19;101208.41;5112618;27;47311;-86
2022/07/28 06:05:40;;;;;;;;;2.25;2.25;;;;;19.86;41.49;101200.31;5094583;27;69249;-86
2022/07/28 06:08:06;;;;;;;;;2.00;2.00;;;;;19.88;41.41;101204.56;5095519;27;45842;-86
2022/07/28 06:13:16;;;;;;;;;2.00;2.00;;;;;20.01;40.72;101215.22;5095542;27;45454;-86
2022/07/28 06:15:42;;;;;;;;;5.00;2.00;;;;;20.05;40.79;101213.25;5095403;27;45345;-86
2022/07/28 06:18:07;;;;;;;;;3.75;2.00;;;;;20.10;40.55;101216.47;5094471;27;65900;-86
2022/07/28 06:20:33;;;;;;;;;5.25;2.75;;;;;20.18;40.59;101222.13;5095010;27;48044;-87
2022/07/28 06:22:58;;;;;;;;;6.00;3.00;;;;;20.20;40.45;101214.94;5112027;27;47583;-86
2022/07/28 06:25:28;;;;;;;;;4.00;2.50;;;;;20.24;40.47;101208.50;5094230;27;64859;-87
2022/07/28 06:27:55;;;;;;;;;3.00;3.00;;;;;20.30;40.66;101215.25;5095588;27;45536;-87
2022/07/28 06:30:21;;;;;;;;;3.00;3.00;;;;;20.38;40.26;101225.34;5093683;27;45656;-87
2022/07/28 06:32:47;;;;;;;;;3.00;3.00;;;;;20.43;40.14;101217.94;5091579;27;47182;-87
2022/07/28 06:35:15;;;;;;;;;2.00;2.00;;;;;20.52;39.81;101227.09;5091432;27;45515;-87
2022/07/28 06:37:41;;;;;;;;;5.00;3.25;;;;;20.57;40.84;101217.09;5075912;28;45347;-87
2022/07/28 06:40:07;;;;;;;;;3.00;3.00;;;;;20.63;41.28;101225.50;5108807;27;45580;-87
2022/07/28 06:42:33;;;;;;;;;4.75;2.25;;;;;20.70;40.33;101218.03;5075621;27;46638;-87
2022/07/28 06:44:58;;;;;;;;;4.00;3.00;;;;;20.80;40.17;101218.28;5076701;27;62626;-87
2022/07/28 06:47:23;;;;;;;;;3.25;3.25;;;;;20.92;39.91;101219.31;5078193;28;45510;-87
2022/07/28 06:49:49;;;;;;;;;4.25;2.75;;;;;20.93;40.10;101213.06;5078582;28;58795;-86
2022/07/28 06:52:16;;;;;;;;;3.50;2.50;;;;;21.03;40.39;101227.41;5078821;28;57545;-88
2022/07/28 06:54:41;;;;;;;;;2.00;2.00;;;;;21.02;39.65;101212.44;5078015;28;45379;-84
2022/07/28 06:57:08;;;;;;;;;2.00;1.75;;;;;21.04;39.33;101219.34;5076631;28;66473;-82
2022/07/28 06:59:33;;;;;;;;;2.25;2.25;;;;;21.07;40.15;101224.44;5078807;27;45463;-82
2022/07/28 07:02:01;;;;;;;;;4.25;3.00;;;;;21.12;40.37;101218.84;5077283;28;46504;-82
2022/07/28 07:04:27;;;;;;;;;3.75;3.50;;;;;21.14;39.56;101211.66;5078564;28;45295;-82
2022/07/28 07:06:52;;;;;;;;;5.00;3.00;;;;;21.24;39.60;101212.72;5078361;28;45369;-82
2022/07/28 07:09:17;;;;;;;;;4.50;3.00;;;;;21.33;39.07;101216.56;5075890;28;69109;-82
2022/07/28 07:11:43;;;;;;;;;4.00;3.00;;;;;21.43;38.98;101222.09;5077503;27;71562;-82
2022/07/28 07:14:08;;;;;;;;;5.00;3.50;;;;;21.52;38.23;101223.31;5077017;28;45338;-82
2022/07/28 07:16:33;;;;;;;;;4.25;3.00;;;;;21.56;38.60;101230.09;5076414;28;62608;-82
2022/07/28 07:18:59;;;;;;;;;5.00;4.00;;;;;21.60;38.87;101237.75;5078205;28;45287;-82
2022/07/28 07:21:24;;;;;;;;;3.50;3.00;;;;;21.62;38.30;101227.06;5077234;28;73589;-83
2022/07/28 07:23:49;;;;;;;;;4.75;4.00;;;;;21.73;38.97;101232.47;5075770;28;69016;-82
2022/07/28 07:26:15;;;;;;;;;5.25;4.00;;;;;21.79;38.50;101228.56;5077145;28;45287;-86
2022/07/28 07:28:41;;;;;;;;;3.50;3.00;;;;;21.86;38.80;101229.84;5075970;28;69724;-83
2022/07/28 07:31:06;;;;;;;;;5.25;4.00;;;;;21.89;37.81;101226.94;5076591;28;46309;-82
2022/07/28 07:33:32;;;;;;;;;5.00;4.00;;;;;21.99;38.76;101230.69;5110902;27;45394;-82
2022/07/28 07:35:57;;;;;;;;;6.25;5.00;;;;;22.12;38.29;101232.47;5072359;28;66655;-82
2022/07/28 07:38:22;;;;;;;;;7.75;3.75;;;;;22.08;38.59;101221.22;5072299;27;68484;-81
2022/07/28 07:40:49;;;;;;;;;5.75;3.00;;;;;22.14;38.61;101230.53;5080912;27;65763;-83
2022/07/28 07:43:15;;;;;;;;;5.50;4.25;;;;;22.21;38.48;101237.13;5080114;27;45818;-83
2022/07/28 07:45:40;;;;;;;;;4.00;4.00;;;;;22.20;38.09;101227.47;5084877;27;45481;-82
2022/07/28 07:48:06;;;;;;;;;4.00;4.00;;;;;22.28;38.06;101225.16;5086514;27;60096;-82
2022/07/28 07:50:31;;;;;;;;;5.25;3.00;;;;;22.35;38.14;101229.06;5081134;27;46916;-82
2022/07/28 07:52:57;;;;;;;;;5.50;4.25;;;;;22.47;37.67;101227.34;5080697;27;46022;-82
2022/07/28 07:55:22;;;;;;;;;3.25;3.25;;;;;22.48;37.42;101220.25;5087394;27;45498;-82
2022/07/28 07:57:48;;;;;;;;;5.75;4.00;;;;;22.64;37.21;101228.81;5075770;28;45817;-82
2022/07/28 08:00:13;;;;;;;;;5.25;3.00;;;;;22.72;36.75;101225.59;5076149;28;66520;-82
2022/07/28 08:02:40;;;;;;;;;5.00;4.00;;;;;22.78;36.70;101218.03;5110363;27;45448;-82
2022/07/28 08:05:06;;;;;;;;;5.75;3.00;;;;;22.82;37.92;101216.00;5092656;27;45421;-82
2022/07/28 08:07:31;;;;;;;;;6.00;3.75;;;;;22.88;36.74;101215.56;5109632;27;45350;-82
2022/07/28 08:09:56;;;;;;;;;6.00;4.75;;;;;22.89;35.94;101221.72;5092597;27;62294;-82
2022/07/28 08:12:22;;;;;;;;;7.00;5.00;;;;;22.76;36.08;101206.69;5092228;27;73447;-82
2022/07/28 08:14:47;;;;;;;;;3.75;3.75;;;;;22.71;37.87;101203.50;5075294;27;46858;-82
2022/07/28 08:17:12;;;;;;;;;6.50;3.00;;;;;22.82;36.76;101208.03;5081430;27;66157;-82
2022/07/28 08:19:38;;;;;;;;;4.75;4.00;;;;;22.88;36.93;101209.38;5076953;27;68680;-82
2022/07/28 08:22:03;;;;;;;;;4.00;4.00;;;;;23.01;36.12;101220.78;5095675;27;45334;-82
2022/07/28 08:24:28;;;;;;;;;5.75;3.50;;;;;23.05;37.14;101216.13;5094787;27;64546;-82
2022/07/28 08:26:54;;;;;;;;;6.00;4.50;;;;;23.18;35.96;101223.09;5078010;27;45397;-82
2022/07/28 08:29:19;;;;;;;;;9.00;4.00;;;;;23.29;36.38;101218.78;5098337;27;75095;-82
2022/07/28 08:31:44;;;;;;;;;4.75;4.00;;;;;23.35;35.81;101221.81;5071047;27;64845;-82
2022/07/28 08:34:10;;;;;;;;;5.50;4.75;;;;;23.39;36.33;101214.47;5108845;27;62058;-82
2022/07/28 08:36:35;;;;;;;;;4.00;3.00;;;;;23.45;35.88;101216.66;5065485;27;68928;-82
2022/07/28 08:39:00;;;;;;;;;5.75;3.75;;;;;23.47;36.01;101217.38;5054226;27;75881;-82
2022/07/28 08:41:31;;;;;;;;;5.00;3.75;;;;;23.54;35.47;101215.94;5067416;27;45489;-81
2022/07/28 08:43:57;;;;;;;;;4.25;3.25;;;;;23.55;36.42;101215.00;5097265;27;45514;-82
2022/07/28 08:46:23;;;;;;;;;4.75;2.75;;;;;23.60;35.81;101211.97;5075259;27;67859;-82
2022/07/28 08:48:49;;;;;;;;;5.25;4.00;;;;;23.66;35.99;101208.88;5081822;27;70715;-82
2022/07/28 08:51:15;;;;;;;;;4.50;4.00;;;;;23.73;34.87;101203.91;5064461;27;45382;-82
2022/07/28 08:53:41;;;;;;;;;7.00;4.00;;;;;23.77;35.97;101208.03;5060337;27;45438;-83
2022/07/28 08:56:11;;;;;;;;;4.00;4.00;;;;;23.77;34.90;101210.69;5054997;28;45657;-83
2022/07/28 08:58:37;;;;;;;;;4.75;4.25;;;;;23.75;35.48;101205.50;5064292;27;45779;-84
2022/07/28 09:01:03;;;;;;;;;3.75;3.25;;;;;23.78;34.84;101204.41;5096968;27;45380;-83
2022/07/28 09:03:29;;;;;;;;;5.75;4.75;;;;;23.80;34.70;101204.34;5090876;27;45422;-84
2022/07/28 09:05:55;;;;;;;;;7.50;4.00;;;;;23.79;36.02;101208.78;5053538;28;45298;-83
2022/07/28 09:08:21;;;;;;;;;5.00;4.50;;;;;23.77;34.84;101198.25;5054699;28;45459;-83
2022/07/28 09:10:47;;;;;;;;;8.25;5.25;;;;;23.83;34.52;101198.75;5054414;28;45391;-83
2022/07/28 09:13:13;;;;;;;;;4.25;4.00;;;;;23.83;35.57;101196.09;5056318;28;45297;-83
2022/07/28 09:15:39;;;;;;;;;5.00;4.00;;;;;23.96;35.03;101203.00;5071606;28;45390;-83
2022/07/28 09:18:05;;;;;;;;;3.50;3.00;;;;;24.03;35.34;101192.72;5071912;28;47080;-83
2022/07/28 09:20:30;;;;;;;;;2.75;2.75;;;;;24.11;35.98;101195.66;5055967;28;45316;-83
2022/07/28 09:23:01;;;;;;;;;4.25;4.25;;;;;24.19;34.89;101195.03;5053995;28;46001;-83
2022/07/28 09:25:29;;;;;;;;;5.00;3.25;;;;;24.35;34.72;101197.34;5038137;28;45400;-83
2022/07/28 09:27:54;;;;;;;;;5.50;3.50;;;;;24.41;34.18;101190.66;5037588;28;47168;-83
2022/07/28 09:30:30;;;;;;;;;6.75;5.00;;;;;24.58;34.30;101202.66;5072880;28;45372;-83
2022/07/28 09:33:21;;;;;;;;;3.00;3.00;;;;;24.70;33.11;101197.16;5075898;28;45412;-83
2022/07/28 09:35:55;;;;;;;;;5.00;3.50;;;;;24.79;33.34;101198.22;5076010;28;45309;-83
2022/07/28 09:38:22;;;;;;;;;3.50;3.50;;;;;24.90;34.66;101192.00;5108010;27;45755;-83
2022/07/28 09:40:58;;;;;;;;;3.75;2.75;;;;;25.04;33.32;101190.88;5076014;27;45778;-84
2022/07/28 09:43:50;;;;;;;;;5.75;3.25;;;;;25.25;33.15;101181.13;5054268;28;45487;-84
2022/07/28 09:46:19;;;;;;;;;5.00;3.00;;;;;25.42;32.98;101179.69;5053838;28;45596;-80
2022/07/28 09:49:00;;;;;;;;;4.00;4.00;;;;;25.55;32.14;101182.16;5055324;28;46785;-81
2022/07/28 09:51:30;;;;;;;;;5.50;4.00;;;;;25.59;32.30;101190.72;5055376;28;45284;-81
2022/07/28 09:54:09;;;;;;;;;3.25;2.75;;;;;25.65;31.53;101180.41;5054630;28;45380;-81
2022/07/28 09:56:35;;;;;;;;;3.25;2.50;;;;;25.76;32.05;101181.28;5073130;28;45563;-81
2022/07/28 09:59:02;;;;;;;;;6.25;3.75;;;;;25.86;31.52;101182.19;5069252;27;46571;-82
2022/07/28 10:01:27;;;;;;;;;4.00;4.00;;;;;25.87;31.34;101170.53;5068814;28;45411;-81
2022/07/28 10:03:57;;;;;;;;;4.75;4.75;;;;;25.99;31.00;101174.00;5062959;28;45641;-81
2022/07/28 10:06:27;;;;;;;;;4.25;2.75;;;;;26.16;31.09;101177.84;5070310;27;45359;-80
2022/07/28 10:08:54;;;;;;;;;3.00;2.50;;;;;26.20;31.85;101174.75;5052977;28;45474;-78
2022/07/28 10:11:25;;;;;;;;;4.50;2.00;;;;;26.25;30.97;101169.03;5053618;28;45928;-78
2022/07/28 10:13:53;;;;;;;;;3.00;3.00;;;;;26.24;30.54;101176.19;5054479;27;45431;-78
2022/07/28 10:16:20;;;;;;;;;3.00;3.00;;;;;26.21;30.96;101156.94;5070600;27;45497;-77
2022/07/28 10:18:46;;;;;;;;;1.75;1.75;;;;;26.23;30.54;101158.50;5059974;27;46197;-78
2022/07/28 10:21:14;;;;;;;;;4.25;2.25;;;;;26.36;30.55;101173.41;5057669;28;45454;-78
2022/07/28 10:23:45;;;;;;;;;3.00;3.00;;;;;26.37;32.36;101159.91;5056102;27;45510;-78
2022/07/28 10:26:10;;;;;;;;;3.00;3.00;;;;;26.47;30.87;101154.63;5056041;28;45554;-79
2022/07/28 10:28:39;;;;;;;;;2.00;2.00;;;;;26.57;30.31;101155.47;5063004;27;46042;-79
2022/07/28 10:31:08;;;;;;;;;4.00;2.75;;;;;26.66;29.97;101161.84;5077968;27;45379;-78
2022/07/28 10:33:34;;;;;;;;;4.25;2.00;;;;;26.65;30.17;101157.47;5067898;27;45433;-78
2022/07/28 10:35:59;;;;;;;;;5.25;5.00;;;;;26.69;29.80;101158.03;5056260;28;45600;-77
2022/07/28 10:38:28;;;;;;;;;1.00;1.00;;;;;26.66;29.43;101153.81;5056593;27;45419;-79
2022/07/28 10:40:55;;;;;;;;;3.00;2.75;;;;;26.67;29.14;101160.88;5071884;27;45491;-79
2022/07/28 10:43:21;;;;;;;;;1.00;1.00;;;;;26.66;30.15;101159.16;5075049;27;45473;-78
2022/07/28 10:45:47;;;;;;;;;3.00;2.00;;;;;26.69;30.02;101156.22;5105226;27;45532;-79
2022/07/28 10:48:14;;;;;;;;;2.50;2.50;;;;;26.78;29.99;101162.53;5072679;27;74453;-78
2022/07/28 10:50:39;;;;;;;;;2.25;2.25;;;;;26.83;29.32;101162.97;5068223;27;45913;-79
2022/07/28 10:53:08;;;;;;;;;4.00;1.50;;;;;26.83;29.57;101157.63;5056897;27;69355;-78
2022/07/28 10:55:44;;;;;;;;;3.00;3.00;;;;;26.83;30.05;101152.28;5055931;28;45394;-79
2022/07/28 10:58:18;;;;;;;;;3.75;3.00;;;;;26.83;30.60;101154.94;5056124;27;46665;-80
2022/07/28 11:00:51;;;;;;;;;3.00;3.00;;;;;26.87;30.06;101150.19;5057116;28;45473;-79
2022/07/28 11:03:42;;;;;;;;;2.00;1.25;;;;;26.91;29.39;101151.56;5069609;27;45274;-81
2022/07/28 11:06:32;;;;;;;;;3.00;2.50;;;;;26.94;29.46;101159.31;5075885;28;45636;-81
2022/07/28 11:09:13;;;;;;;;;2.75;2.75;;;;;26.97;29.29;101157.22;5077449;27;46478;-80
2022/07/28 11:11:51;;;;;;;;;3.50;2.75;;;;;26.98;29.56;101140.19;5073848;27;45439;-80
2022/07/28 11:14:22;;;;;;;;;4.00;3.00;;;;;27.06;29.53;101152.84;5056797;27;45350;-80
2022/07/28 11:16:59;;;;;;;;;2.00;2.00;;;;;27.13;29.44;101153.94;5057719;28;45387;-81
2022/07/28 11:19:28;;;;;;;;;2.00;2.00;;;;;27.27;31.60;101157.22;5066269;27;45490;-80
2022/07/28 11:22:23;;;;;;;;;1.75;1.75;;;;;27.48;29.25;101162.38;5072973;27;45804;-81
2022/07/28 11:24:59;;;;;;;;;2.50;2.50;;;;;27.61;29.02;101150.34;5057690;27;45244;-79
2022/07/28 11:27:40;;;;;;;;;2.75;2.75;;;;;27.74;29.03;101146.53;5057441;28;45283;-81
2022/07/28 11:30:06;;;;;;;;;2.50;2.00;;;;;27.88;28.12;101142.50;5074363;27;46422;-80
2022/07/28 11:33:04;;;;;;;;;1.25;1.25;;;;;28.08;28.97;101143.31;5067918;27;45323;-80